608  
SXUS55 KTFX 290215  
OSOTFX  
 
AREA AWOS OBSERVATIONS  
NATIONAL WEATHER SERVICE GREAT FALLS MT  
715 PM MST MON NOV 28 2022  
 
METAR KCII 290210Z AUTO 10SM M14/M18 A2988 RMK A01  
METAR K6S8 290210Z AUTO 32008KT 10SM M08/M15 A2982 RMK A01 LAUREL  
METAR KS85 290210Z AUTO 28023G30KT 10SM FEW009 BKN015 OVC049 M09/M12 A2971 RMK A01 CULBERTSON  
 
CLICK HERE TO GO TO PREVIOUS BULLETINS.

The Nexlab MT Page Main Text Page